Pagina principale
METAR-TAF:

METAR-TAF

Aeroporti :

Sugh el Giumaa

Tripoli, Libia

latitudine: 32-54N, longitudine: 13-17E, altezza: 11 m

Osservazione

Il bollettino è stato emesso 2 ore e 8 minuti fa, alle 22:50 UTC
Vento 7 kt da est
Temperature 27°C
Umidità 79%
Pressione 1015 hPa
Visibilità: 7000 m
Poco nuvoloso ad un'altezza di 2500 ft

METAR: HLLM 152250Z 09007KT 7000 FEW025 27/23 Q1015

Ora: 02:58 (00:58 UTC)

Previsione

Il bollettino è stato emesso 13 ore e 58 minuti fa, alle 11:00 UTC
Previsione valida dal 14 alle 12 UTC al 15 alle 12 UTC
Vento 12 kt da nord/nord-ovest
Visibilità 10 km o più
Nubi sparse ad un'altezza di 3000 ft
Nubi sparse ad un'altezza di 8000 ft
Evoluzione graduale
dal 14 alle 20 UTC al 14 alle 22 UTC
Vento 2 kt da direzioni variabili

TAF: HLLM 141100Z 1412/1512 34012KT 9999 SCT030 SCT080 BECMG 1420/1422 VRB02KT

Osservazioni e previsioni meteorologiche di più di 4000 aeroporti (messaggi METAR e TAF).

Le stazioni disponibili sono rappresentate dai dischi gialli e rossi sulla carta.

Puntare il mouse per vedere il nome della stazione.

Clicca sopra per visualizzare le osservazioni e previsioni meteorologiche.

Per cambiare la mappa : fare clic sui pulsanti verdi con una croce nera per ingrandire, il pulsante verde con un trattino per diminuire, o sulla freccia verde per le mappe adiacenti.


METAR-TAF: